Terminal Aerodrome Forecast
Issued by NWS

Home | Current Version | Previous Version | Text Only | Print | Product List | Glossary Off
Versions: 1 2 3 4 5 6 7 8 9 10 11 12 13 14 15 16 17 18

000
FTUS43 KMPX 301146
TAFRNH
TAF
KRNH 301146Z 3012/3112 00000KT P6SM BKN080 BKN200
     FM301500 17005KT P6SM BKN100
     FM302000 19007KT P6SM BKN150
     FM302300 25005KT P6SM VCSH SCT050 BKN150
     FM310200 31010KT P6SM SKC
     FM310600 30005KT P6SM SKC=

USA.gov is the U.S. government's official web portal to all federal, state and local government web resources and services.